sensor_id;sensor_type;location;lat;lon;timestamp;temperature;humidity
41904;DHT22;27586;51.124;4.182;2022-12-07T00:01:12;6.90;99.90
41904;DHT22;27586;51.124;4.182;2022-12-07T00:03:39;6.90;99.90
41904;DHT22;27586;51.124;4.182;2022-12-07T00:06:07;6.90;99.90
41904;DHT22;27586;51.124;4.182;2022-12-07T00:08:34;7.00;99.90
41904;DHT22;27586;51.124;4.182;2022-12-07T00:11:08;7.00;99.90
41904;DHT22;27586;51.124;4.182;2022-12-07T00:13:34;6.90;99.90
41904;DHT22;27586;51.124;4.182;2022-12-07T00:16:08;6.90;99.90
41904;DHT22;27586;51.124;4.182;2022-12-07T00:18:34;6.90;99.90
41904;DHT22;27586;51.124;4.182;2022-12-07T00:21:02;6.80;99.90
41904;DHT22;27586;51.124;4.182;2022-12-07T00:23:28;6.80;99.90
41904;DHT22;27586;51.124;4.182;2022-12-07T00:25:54;6.60;99.90
41904;DHT22;27586;51.124;4.182;2022-12-07T00:28:20;6.60;99.90
41904;DHT22;27586;51.124;4.182;2022-12-07T00:30:46;6.60;99.90
41904;DHT22;27586;51.124;4.182;2022-12-07T00:33:11;6.60;99.90
41904;DHT22;27586;51.124;4.182;2022-12-07T00:35:37;6.70;99.90
41904;DHT22;27586;51.124;4.182;2022-12-07T00:38:03;6.70;99.90
41904;DHT22;27586;51.124;4.182;2022-12-07T00:40:28;6.60;99.90
41904;DHT22;27586;51.124;4.182;2022-12-07T00:42:54;6.50;99.90
41904;DHT22;27586;51.124;4.182;2022-12-07T00:45:19;6.60;99.90
41904;DHT22;27586;51.124;4.182;2022-12-07T00:47:46;6.60;99.90
41904;DHT22;27586;51.124;4.182;2022-12-07T00:50:11;6.70;99.90
41904;DHT22;27586;51.124;4.182;2022-12-07T00:52:37;6.70;99.90
41904;DHT22;27586;51.124;4.182;2022-12-07T00:55:03;6.70;99.90
41904;DHT22;27586;51.124;4.182;2022-12-07T00:57:30;6.90;99.90
41904;DHT22;27586;51.124;4.182;2022-12-07T00:59:56;7.00;99.90
41904;DHT22;27586;51.124;4.182;2022-12-07T01:02:23;7.10;99.90
41904;DHT22;27586;51.124;4.182;2022-12-07T01:04:48;7.20;99.90
41904;DHT22;27586;51.124;4.182;2022-12-07T01:07:14;7.20;99.90
41904;DHT22;27586;51.124;4.182;2022-12-07T01:09:40;7.40;99.90
41904;DHT22;27586;51.124;4.182;2022-12-07T01:12:06;7.30;99.90
41904;DHT22;27586;51.124;4.182;2022-12-07T01:14:31;7.30;99.90
41904;DHT22;27586;51.124;4.182;2022-12-07T01:16:57;7.20;99.90
41904;DHT22;27586;51.124;4.182;2022-12-07T01:19:22;7.20;99.90
41904;DHT22;27586;51.124;4.182;2022-12-07T01:21:48;7.40;99.90
41904;DHT22;27586;51.124;4.182;2022-12-07T01:24:14;7.30;99.90
41904;DHT22;27586;51.124;4.182;2022-12-07T01:26:39;7.30;99.90
41904;DHT22;27586;51.124;4.182;2022-12-07T01:29:05;7.30;99.90
41904;DHT22;27586;51.124;4.182;2022-12-07T01:31:31;7.40;99.90
41904;DHT22;27586;51.124;4.182;2022-12-07T01:33:58;7.30;99.90
41904;DHT22;27586;51.124;4.182;2022-12-07T01:36:30;7.00;99.90
41904;DHT22;27586;51.124;4.182;2022-12-07T01:39:00;7.10;99.90
41904;DHT22;27586;51.124;4.182;2022-12-07T01:41:29;7.30;99.90
41904;DHT22;27586;51.124;4.182;2022-12-07T01:46:44;7.10;99.90
41904;DHT22;27586;51.124;4.182;2022-12-07T01:49:14;7.30;99.90
41904;DHT22;27586;51.124;4.182;2022-12-07T01:51:43;7.40;99.90
41904;DHT22;27586;51.124;4.182;2022-12-07T01:54:11;7.40;99.90
41904;DHT22;27586;51.124;4.182;2022-12-07T01:56:40;7.40;99.90
41904;DHT22;27586;51.124;4.182;2022-12-07T01:59:08;7.40;99.90
41904;DHT22;27586;51.124;4.182;2022-12-07T02:01:33;7.50;99.90
41904;DHT22;27586;51.124;4.182;2022-12-07T02:03:59;7.40;99.90
41904;DHT22;27586;51.124;4.182;2022-12-07T02:06:25;7.30;99.90
41904;DHT22;27586;51.124;4.182;2022-12-07T02:08:51;7.20;99.90
41904;DHT22;27586;51.124;4.182;2022-12-07T02:11:18;7.10;99.90
41904;DHT22;27586;51.124;4.182;2022-12-07T02:13:45;7.20;99.90
41904;DHT22;27586;51.124;4.182;2022-12-07T02:16:25;7.20;99.90
41904;DHT22;27586;51.124;4.182;2022-12-07T02:29:57;7.30;99.90
41904;DHT22;27586;51.124;4.182;2022-12-07T02:32:40;7.40;99.90
41904;DHT22;27586;51.124;4.182;2022-12-07T02:35:51;7.50;99.90
41904;DHT22;27586;51.124;4.182;2022-12-07T02:40:54;7.50;99.90
41904;DHT22;27586;51.124;4.182;2022-12-07T02:45:56;7.50;99.90
41904;DHT22;27586;51.124;4.182;2022-12-07T02:48:24;7.50;99.90
41904;DHT22;27586;51.124;4.182;2022-12-07T02:50:54;7.50;99.90
41904;DHT22;27586;51.124;4.182;2022-12-07T02:53:37;7.50;99.90
41904;DHT22;27586;51.124;4.182;2022-12-07T02:56:13;7.50;99.90
41904;DHT22;27586;51.124;4.182;2022-12-07T03:01:41;7.50;99.90
41904;DHT22;27586;51.124;4.182;2022-12-07T03:07:05;7.50;99.90
41904;DHT22;27586;51.124;4.182;2022-12-07T03:09:50;7.50;99.90
41904;DHT22;27586;51.124;4.182;2022-12-07T03:12:24;7.60;99.90
41904;DHT22;27586;51.124;4.182;2022-12-07T03:15:08;7.60;99.90
41904;DHT22;27586;51.124;4.182;2022-12-07T03:17:38;7.60;99.90
41904;DHT22;27586;51.124;4.182;2022-12-07T03:20:07;7.60;99.90
41904;DHT22;27586;51.124;4.182;2022-12-07T03:22:36;7.60;99.90
41904;DHT22;27586;51.124;4.182;2022-12-07T03:25:07;7.60;99.90
41904;DHT22;27586;51.124;4.182;2022-12-07T03:27:39;7.50;99.90
41904;DHT22;27586;51.124;4.182;2022-12-07T03:30:30;7.40;99.90
41904;DHT22;27586;51.124;4.182;2022-12-07T03:32:59;7.40;99.90
41904;DHT22;27586;51.124;4.182;2022-12-07T03:36:01;7.20;99.90
41904;DHT22;27586;51.124;4.182;2022-12-07T03:38:42;7.20;99.90
41904;DHT22;27586;51.124;4.182;2022-12-07T03:41:24;7.20;99.90
41904;DHT22;27586;51.124;4.182;2022-12-07T03:43:53;7.20;99.90
41904;DHT22;27586;51.124;4.182;2022-12-07T03:54:18;7.10;99.90
41904;DHT22;27586;51.124;4.182;2022-12-07T03:56:46;7.00;99.90
41904;DHT22;27586;51.124;4.182;2022-12-07T03:59:14;7.10;99.90
41904;DHT22;27586;51.124;4.182;2022-12-07T04:01:45;7.20;99.90
41904;DHT22;27586;51.124;4.182;2022-12-07T04:04:17;7.20;99.90
41904;DHT22;27586;51.124;4.182;2022-12-07T04:06:43;7.30;99.90
41904;DHT22;27586;51.124;4.182;2022-12-07T04:09:08;7.40;99.90
41904;DHT22;27586;51.124;4.182;2022-12-07T04:11:34;7.40;99.90
41904;DHT22;27586;51.124;4.182;2022-12-07T04:13:59;7.10;99.90
41904;DHT22;27586;51.124;4.182;2022-12-07T04:16:44;7.10;99.90
41904;DHT22;27586;51.124;4.182;2022-12-07T04:19:11;7.10;99.90
41904;DHT22;27586;51.124;4.182;2022-12-07T04:21:36;7.10;99.90
41904;DHT22;27586;51.124;4.182;2022-12-07T04:24:03;7.00;99.90
41904;DHT22;27586;51.124;4.182;2022-12-07T04:26:29;6.90;99.90
41904;DHT22;27586;51.124;4.182;2022-12-07T04:28:54;6.80;99.90
41904;DHT22;27586;51.124;4.182;2022-12-07T04:31:20;6.70;99.90
41904;DHT22;27586;51.124;4.182;2022-12-07T04:33:46;6.70;99.90
41904;DHT22;27586;51.124;4.182;2022-12-07T04:36:11;6.70;99.90
41904;DHT22;27586;51.124;4.182;2022-12-07T04:38:37;6.70;99.90
41904;DHT22;27586;51.124;4.182;2022-12-07T04:41:07;6.70;99.90
41904;DHT22;27586;51.124;4.182;2022-12-07T04:43:33;6.60;99.90
41904;DHT22;27586;51.124;4.182;2022-12-07T04:45:58;6.50;99.90
41904;DHT22;27586;51.124;4.182;2022-12-07T04:48:24;6.50;99.90
41904;DHT22;27586;51.124;4.182;2022-12-07T04:50:50;6.50;99.90
41904;DHT22;27586;51.124;4.182;2022-12-07T04:53:16;6.50;99.90
41904;DHT22;27586;51.124;4.182;2022-12-07T04:55:41;6.60;99.90
41904;DHT22;27586;51.124;4.182;2022-12-07T04:58:07;6.50;99.90
41904;DHT22;27586;51.124;4.182;2022-12-07T05:00:33;6.60;99.90
41904;DHT22;27586;51.124;4.182;2022-12-07T05:02:58;6.70;99.90
41904;DHT22;27586;51.124;4.182;2022-12-07T05:05:24;6.80;99.90
41904;DHT22;27586;51.124;4.182;2022-12-07T05:07:50;6.90;99.90
41904;DHT22;27586;51.124;4.182;2022-12-07T05:10:16;6.80;99.90
41904;DHT22;27586;51.124;4.182;2022-12-07T05:12:42;6.90;99.90
41904;DHT22;27586;51.124;4.182;2022-12-07T05:15:07;7.00;99.90
41904;DHT22;27586;51.124;4.182;2022-12-07T05:17:33;7.00;99.90
41904;DHT22;27586;51.124;4.182;2022-12-07T05:19:59;6.90;99.90
41904;DHT22;27586;51.124;4.182;2022-12-07T05:22:25;6.90;99.90
41904;DHT22;27586;51.124;4.182;2022-12-07T05:24:57;7.00;99.90
41904;DHT22;27586;51.124;4.182;2022-12-07T05:27:23;7.00;99.90
41904;DHT22;27586;51.124;4.182;2022-12-07T05:29:50;7.10;99.90
41904;DHT22;27586;51.124;4.182;2022-12-07T05:32:16;7.20;99.90
41904;DHT22;27586;51.124;4.182;2022-12-07T05:34:42;7.10;99.90
41904;DHT22;27586;51.124;4.182;2022-12-07T05:37:11;7.10;99.90
41904;DHT22;27586;51.124;4.182;2022-12-07T05:39:36;7.10;99.90
41904;DHT22;27586;51.124;4.182;2022-12-07T05:42:06;7.20;99.90
41904;DHT22;27586;51.124;4.182;2022-12-07T05:44:38;7.20;99.90
41904;DHT22;27586;51.124;4.182;2022-12-07T05:47:03;7.30;99.90
41904;DHT22;27586;51.124;4.182;2022-12-07T05:49:29;7.30;99.90
41904;DHT22;27586;51.124;4.182;2022-12-07T05:51:55;7.10;99.90
41904;DHT22;27586;51.124;4.182;2022-12-07T05:54:20;7.00;99.90
41904;DHT22;27586;51.124;4.182;2022-12-07T05:56:46;7.00;99.90
41904;DHT22;27586;51.124;4.182;2022-12-07T05:59:14;6.90;99.90
41904;DHT22;27586;51.124;4.182;2022-12-07T06:01:54;6.90;99.90
41904;DHT22;27586;51.124;4.182;2022-12-07T06:04:22;6.70;99.90
41904;DHT22;27586;51.124;4.182;2022-12-07T06:06:48;6.70;99.90
41904;DHT22;27586;51.124;4.182;2022-12-07T06:09:14;6.60;99.90
41904;DHT22;27586;51.124;4.182;2022-12-07T06:11:40;6.80;99.90
41904;DHT22;27586;51.124;4.182;2022-12-07T06:14:24;6.90;99.90
41904;DHT22;27586;51.124;4.182;2022-12-07T06:16:50;6.90;99.90
41904;DHT22;27586;51.124;4.182;2022-12-07T06:19:16;6.90;99.90
41904;DHT22;27586;51.124;4.182;2022-12-07T06:21:42;6.90;99.90
41904;DHT22;27586;51.124;4.182;2022-12-07T06:24:10;6.90;99.90
41904;DHT22;27586;51.124;4.182;2022-12-07T06:26:37;6.90;99.90
41904;DHT22;27586;51.124;4.182;2022-12-07T06:29:03;6.90;99.90
41904;DHT22;27586;51.124;4.182;2022-12-07T06:31:28;6.90;99.90
41904;DHT22;27586;51.124;4.182;2022-12-07T06:34:05;7.00;99.90
41904;DHT22;27586;51.124;4.182;2022-12-07T06:36:31;7.00;99.90
41904;DHT22;27586;51.124;4.182;2022-12-07T06:38:56;7.00;99.90
41904;DHT22;27586;51.124;4.182;2022-12-07T06:41:22;7.00;99.90
41904;DHT22;27586;51.124;4.182;2022-12-07T06:43:48;7.00;99.90
41904;DHT22;27586;51.124;4.182;2022-12-07T06:46:15;6.90;99.90
41904;DHT22;27586;51.124;4.182;2022-12-07T06:48:41;7.00;99.90
41904;DHT22;27586;51.124;4.182;2022-12-07T06:51:07;7.10;99.90
41904;DHT22;27586;51.124;4.182;2022-12-07T06:53:33;7.00;99.90
41904;DHT22;27586;51.124;4.182;2022-12-07T06:55:58;7.00;99.90
41904;DHT22;27586;51.124;4.182;2022-12-07T06:58:24;6.90;99.90
41904;DHT22;27586;51.124;4.182;2022-12-07T07:00:49;6.80;99.90
41904;DHT22;27586;51.124;4.182;2022-12-07T07:03:16;6.80;99.90
41904;DHT22;27586;51.124;4.182;2022-12-07T07:05:44;6.60;99.90
41904;DHT22;27586;51.124;4.182;2022-12-07T07:08:11;6.60;99.90
41904;DHT22;27586;51.124;4.182;2022-12-07T07:10:37;6.50;99.90
41904;DHT22;27586;51.124;4.182;2022-12-07T07:13:03;6.50;99.90
41904;DHT22;27586;51.124;4.182;2022-12-07T07:15:29;6.40;99.90
41904;DHT22;27586;51.124;4.182;2022-12-07T07:17:55;6.30;99.90
41904;DHT22;27586;51.124;4.182;2022-12-07T07:20:21;6.40;99.90
41904;DHT22;27586;51.124;4.182;2022-12-07T07:22:47;6.30;99.90
41904;DHT22;27586;51.124;4.182;2022-12-07T07:25:13;6.20;99.90
41904;DHT22;27586;51.124;4.182;2022-12-07T07:27:39;6.20;99.90
41904;DHT22;27586;51.124;4.182;2022-12-07T07:30:05;6.20;99.90
41904;DHT22;27586;51.124;4.182;2022-12-07T07:32:31;6.20;99.90
41904;DHT22;27586;51.124;4.182;2022-12-07T07:34:57;6.20;99.90
41904;DHT22;27586;51.124;4.182;2022-12-07T07:37:23;6.10;99.90
41904;DHT22;27586;51.124;4.182;2022-12-07T07:39:49;6.00;99.90
41904;DHT22;27586;51.124;4.182;2022-12-07T07:42:15;6.00;99.90
41904;DHT22;27586;51.124;4.182;2022-12-07T07:44:40;6.00;99.90
41904;DHT22;27586;51.124;4.182;2022-12-07T07:47:06;6.00;99.90
41904;DHT22;27586;51.124;4.182;2022-12-07T07:49:32;5.90;99.90
41904;DHT22;27586;51.124;4.182;2022-12-07T07:51:57;5.80;99.90
41904;DHT22;27586;51.124;4.182;2022-12-07T07:54:23;5.90;99.90
41904;DHT22;27586;51.124;4.182;2022-12-07T07:56:49;6.10;99.90
41904;DHT22;27586;51.124;4.182;2022-12-07T07:59:15;6.20;99.90
41904;DHT22;27586;51.124;4.182;2022-12-07T08:01:41;6.10;99.90
41904;DHT22;27586;51.124;4.182;2022-12-07T08:04:07;6.20;99.90
41904;DHT22;27586;51.124;4.182;2022-12-07T08:06:32;6.40;99.90
41904;DHT22;27586;51.124;4.182;2022-12-07T08:08:58;6.60;99.90
41904;DHT22;27586;51.124;4.182;2022-12-07T08:11:24;6.50;99.90
41904;DHT22;27586;51.124;4.182;2022-12-07T08:13:50;6.60;99.90
41904;DHT22;27586;51.124;4.182;2022-12-07T08:16:16;6.80;99.90
41904;DHT22;27586;51.124;4.182;2022-12-07T08:18:42;6.80;99.90
41904;DHT22;27586;51.124;4.182;2022-12-07T08:21:11;7.00;99.90
41904;DHT22;27586;51.124;4.182;2022-12-07T08:23:37;7.10;99.90
41904;DHT22;27586;51.124;4.182;2022-12-07T08:26:06;7.30;99.90
41904;DHT22;27586;51.124;4.182;2022-12-07T08:28:32;7.10;99.90
41904;DHT22;27586;51.124;4.182;2022-12-07T08:31:06;6.90;99.90
41904;DHT22;27586;51.124;4.182;2022-12-07T08:33:33;7.10;99.90
41904;DHT22;27586;51.124;4.182;2022-12-07T08:36:03;7.40;99.90
41904;DHT22;27586;51.124;4.182;2022-12-07T08:38:29;7.50;99.90
41904;DHT22;27586;51.124;4.182;2022-12-07T08:40:58;7.60;99.90
41904;DHT22;27586;51.124;4.182;2022-12-07T08:43:24;7.70;99.90
41904;DHT22;27586;51.124;4.182;2022-12-07T08:46:11;7.70;99.90
41904;DHT22;27586;51.124;4.182;2022-12-07T08:48:51;7.70;99.90
41904;DHT22;27586;51.124;4.182;2022-12-07T08:51:19;7.70;99.90
41904;DHT22;27586;51.124;4.182;2022-12-07T08:53:49;7.80;99.90
41904;DHT22;27586;51.124;4.182;2022-12-07T08:56:15;7.70;99.90
41904;DHT22;27586;51.124;4.182;2022-12-07T08:58:41;7.70;99.90
41904;DHT22;27586;51.124;4.182;2022-12-07T09:01:06;7.60;99.90
41904;DHT22;27586;51.124;4.182;2022-12-07T09:03:32;7.60;99.90
41904;DHT22;27586;51.124;4.182;2022-12-07T09:05:59;7.60;99.90
41904;DHT22;27586;51.124;4.182;2022-12-07T09:08:29;7.70;99.90
41904;DHT22;27586;51.124;4.182;2022-12-07T09:10:56;7.70;99.90
41904;DHT22;27586;51.124;4.182;2022-12-07T09:13:22;7.80;99.90
41904;DHT22;27586;51.124;4.182;2022-12-07T09:15:51;7.50;99.90
41904;DHT22;27586;51.124;4.182;2022-12-07T09:18:17;7.60;99.90
41904;DHT22;27586;51.124;4.182;2022-12-07T09:20:46;7.50;99.90
41904;DHT22;27586;51.124;4.182;2022-12-07T09:23:11;7.60;99.90
41904;DHT22;27586;51.124;4.182;2022-12-07T09:25:37;7.50;99.90
41904;DHT22;27586;51.124;4.182;2022-12-07T09:28:02;7.30;99.90
41904;DHT22;27586;51.124;4.182;2022-12-07T09:30:28;7.40;99.90
41904;DHT22;27586;51.124;4.182;2022-12-07T09:32:55;7.40;99.90
41904;DHT22;27586;51.124;4.182;2022-12-07T09:35:21;7.30;99.90
41904;DHT22;27586;51.124;4.182;2022-12-07T09:37:47;7.30;99.90
41904;DHT22;27586;51.124;4.182;2022-12-07T09:40:13;7.50;99.90
41904;DHT22;27586;51.124;4.182;2022-12-07T09:42:47;7.40;99.90
41904;DHT22;27586;51.124;4.182;2022-12-07T09:45:25;7.50;99.90
41904;DHT22;27586;51.124;4.182;2022-12-07T09:47:52;7.50;99.90
41904;DHT22;27586;51.124;4.182;2022-12-07T09:50:23;7.60;99.90
41904;DHT22;27586;51.124;4.182;2022-12-07T09:52:50;7.80;99.90
41904;DHT22;27586;51.124;4.182;2022-12-07T09:55:23;7.70;99.90
41904;DHT22;27586;51.124;4.182;2022-12-07T09:57:50;7.70;99.90
41904;DHT22;27586;51.124;4.182;2022-12-07T10:00:21;7.80;99.90
41904;DHT22;27586;51.124;4.182;2022-12-07T10:02:55;8.00;99.90
41904;DHT22;27586;51.124;4.182;2022-12-07T10:05:30;8.00;99.90
41904;DHT22;27586;51.124;4.182;2022-12-07T10:07:56;7.90;99.90
41904;DHT22;27586;51.124;4.182;2022-12-07T10:10:33;8.00;99.90
41904;DHT22;27586;51.124;4.182;2022-12-07T10:13:04;8.00;99.90
41904;DHT22;27586;51.124;4.182;2022-12-07T10:18:36;8.00;99.90
41904;DHT22;27586;51.124;4.182;2022-12-07T10:23:35;8.20;99.90
41904;DHT22;27586;51.124;4.182;2022-12-07T10:26:30;8.00;99.90
41904;DHT22;27586;51.124;4.182;2022-12-07T10:28:59;8.10;99.90
41904;DHT22;27586;51.124;4.182;2022-12-07T10:31:26;8.20;99.90
41904;DHT22;27586;51.124;4.182;2022-12-07T10:34:01;8.40;99.90
41904;DHT22;27586;51.124;4.182;2022-12-07T10:36:39;8.70;99.90
41904;DHT22;27586;51.124;4.182;2022-12-07T10:39:18;8.80;99.90
41904;DHT22;27586;51.124;4.182;2022-12-07T10:41:56;9.00;99.90
41904;DHT22;27586;51.124;4.182;2022-12-07T10:44:30;8.90;99.90
41904;DHT22;27586;51.124;4.182;2022-12-07T10:53:15;9.40;99.90
41904;DHT22;27586;51.124;4.182;2022-12-07T11:01:52;9.90;99.90
41904;DHT22;27586;51.124;4.182;2022-12-07T11:09:52;9.00;99.90
41904;DHT22;27586;51.124;4.182;2022-12-07T11:12:36;9.20;99.90
41904;DHT22;27586;51.124;4.182;2022-12-07T11:20:36;9.40;99.90
41904;DHT22;27586;51.124;4.182;2022-12-07T11:26:29;9.50;99.90
41904;DHT22;27586;51.124;4.182;2022-12-07T11:37:32;9.30;99.90
41904;DHT22;27586;51.124;4.182;2022-12-07T11:40:33;9.40;99.90
41904;DHT22;27586;51.124;4.182;2022-12-07T11:43:26;9.40;99.90
41904;DHT22;27586;51.124;4.182;2022-12-07T11:46:09;9.30;99.90
41904;DHT22;27586;51.124;4.182;2022-12-07T11:49:37;9.30;99.90
41904;DHT22;27586;51.124;4.182;2022-12-07T11:51:51;9.40;99.90
41904;DHT22;27586;51.124;4.182;2022-12-07T11:54:23;9.30;99.90
41904;DHT22;27586;51.124;4.182;2022-12-07T11:56:51;9.10;99.90
41904;DHT22;27586;51.124;4.182;2022-12-07T11:59:25;9.30;99.90
41904;DHT22;27586;51.124;4.182;2022-12-07T12:02:14;9.40;99.90
41904;DHT22;27586;51.124;4.182;2022-12-07T12:04:55;9.50;99.90
41904;DHT22;27586;51.124;4.182;2022-12-07T12:07:24;9.40;99.90
41904;DHT22;27586;51.124;4.182;2022-12-07T12:10:14;9.50;99.90
41904;DHT22;27586;51.124;4.182;2022-12-07T12:12:55;9.50;99.90
41904;DHT22;27586;51.124;4.182;2022-12-07T12:15:55;9.40;99.90
41904;DHT22;27586;51.124;4.182;2022-12-07T12:18:52;9.50;99.90
41904;DHT22;27586;51.124;4.182;2022-12-07T12:21:26;9.40;99.90
41904;DHT22;27586;51.124;4.182;2022-12-07T12:24:02;9.40;99.90
41904;DHT22;27586;51.124;4.182;2022-12-07T12:26:32;9.50;99.90
41904;DHT22;27586;51.124;4.182;2022-12-07T12:29:01;9.20;99.90
41904;DHT22;27586;51.124;4.182;2022-12-07T12:31:33;9.10;99.90
41904;DHT22;27586;51.124;4.182;2022-12-07T12:34:03;9.30;99.90
41904;DHT22;27586;51.124;4.182;2022-12-07T12:47:02;9.60;99.90
41904;DHT22;27586;51.124;4.182;2022-12-07T12:57:27;9.70;99.90
41904;DHT22;27586;51.124;4.182;2022-12-07T13:02:24;9.90;99.90
41904;DHT22;27586;51.124;4.182;2022-12-07T13:18:40;8.60;99.90
41904;DHT22;27586;51.124;4.182;2022-12-07T13:28:52;8.40;99.90
41904;DHT22;27586;51.124;4.182;2022-12-07T13:31:34;8.50;99.90
41904;DHT22;27586;51.124;4.182;2022-12-07T13:34:01;8.60;99.90
41904;DHT22;27586;51.124;4.182;2022-12-07T13:36:31;8.70;99.90
41904;DHT22;27586;51.124;4.182;2022-12-07T13:39:21;8.70;99.90
41904;DHT22;27586;51.124;4.182;2022-12-07T13:41:57;8.70;99.90
41904;DHT22;27586;51.124;4.182;2022-12-07T13:44:25;8.70;99.90
41904;DHT22;27586;51.124;4.182;2022-12-07T13:47:04;8.80;99.90
41904;DHT22;27586;51.124;4.182;2022-12-07T13:49:37;8.70;99.90
41904;DHT22;27586;51.124;4.182;2022-12-07T13:55:29;8.60;99.90
41904;DHT22;27586;51.124;4.182;2022-12-07T13:57:31;8.60;99.90
41904;DHT22;27586;51.124;4.182;2022-12-07T14:00:03;8.60;99.90
41904;DHT22;27586;51.124;4.182;2022-12-07T14:02:32;8.60;99.90
41904;DHT22;27586;51.124;4.182;2022-12-07T14:05:12;8.60;99.90
41904;DHT22;27586;51.124;4.182;2022-12-07T14:10:40;8.70;99.90
41904;DHT22;27586;51.124;4.182;2022-12-07T14:16:01;8.70;99.90
41904;DHT22;27586;51.124;4.182;2022-12-07T14:18:38;8.70;99.90
41904;DHT22;27586;51.124;4.182;2022-12-07T14:23:37;8.60;99.90
41904;DHT22;27586;51.124;4.182;2022-12-07T14:26:20;8.60;99.90
41904;DHT22;27586;51.124;4.182;2022-12-07T14:28:47;8.70;99.90
41904;DHT22;27586;51.124;4.182;2022-12-07T14:31:15;8.60;99.90
41904;DHT22;27586;51.124;4.182;2022-12-07T14:33:41;8.70;99.90
41904;DHT22;27586;51.124;4.182;2022-12-07T14:36:11;8.70;99.90
41904;DHT22;27586;51.124;4.182;2022-12-07T14:38:37;8.70;99.90
41904;DHT22;27586;51.124;4.182;2022-12-07T14:41:04;8.50;99.90
41904;DHT22;27586;51.124;4.182;2022-12-07T14:43:50;8.60;99.90
41904;DHT22;27586;51.124;4.182;2022-12-07T14:46:15;8.50;99.90
41904;DHT22;27586;51.124;4.182;2022-12-07T14:48:41;8.40;99.90
41904;DHT22;27586;51.124;4.182;2022-12-07T14:51:09;8.40;99.90
41904;DHT22;27586;51.124;4.182;2022-12-07T14:53:40;8.30;99.90
41904;DHT22;27586;51.124;4.182;2022-12-07T14:56:07;8.30;99.90
41904;DHT22;27586;51.124;4.182;2022-12-07T14:58:32;8.20;99.90
41904;DHT22;27586;51.124;4.182;2022-12-07T15:00:59;8.20;99.90
41904;DHT22;27586;51.124;4.182;2022-12-07T15:03:25;8.20;99.90
41904;DHT22;27586;51.124;4.182;2022-12-07T15:05:51;8.10;99.90
41904;DHT22;27586;51.124;4.182;2022-12-07T15:08:16;8.20;99.90
41904;DHT22;27586;51.124;4.182;2022-12-07T15:10:43;8.20;99.90
41904;DHT22;27586;51.124;4.182;2022-12-07T15:13:09;8.20;99.90
41904;DHT22;27586;51.124;4.182;2022-12-07T15:15:54;8.20;99.90
41904;DHT22;27586;51.124;4.182;2022-12-07T15:18:21;8.20;99.90
41904;DHT22;27586;51.124;4.182;2022-12-07T15:20:47;8.10;99.90
41904;DHT22;27586;51.124;4.182;2022-12-07T15:23:13;8.00;99.90
41904;DHT22;27586;51.124;4.182;2022-12-07T15:25:46;7.90;99.90
41904;DHT22;27586;51.124;4.182;2022-12-07T15:28:12;7.90;99.90
41904;DHT22;27586;51.124;4.182;2022-12-07T15:30:39;8.00;99.90
41904;DHT22;27586;51.124;4.182;2022-12-07T15:33:06;8.10;99.90
41904;DHT22;27586;51.124;4.182;2022-12-07T15:35:31;8.00;99.90
41904;DHT22;27586;51.124;4.182;2022-12-07T15:37:57;8.10;99.90
41904;DHT22;27586;51.124;4.182;2022-12-07T15:40:23;8.10;99.90
41904;DHT22;27586;51.124;4.182;2022-12-07T15:42:48;8.00;99.90
41904;DHT22;27586;51.124;4.182;2022-12-07T15:45:14;8.10;99.90
41904;DHT22;27586;51.124;4.182;2022-12-07T15:47:42;8.10;99.90
41904;DHT22;27586;51.124;4.182;2022-12-07T15:50:11;8.10;99.90
41904;DHT22;27586;51.124;4.182;2022-12-07T15:52:40;8.10;99.90
41904;DHT22;27586;51.124;4.182;2022-12-07T15:55:07;8.00;99.90
41904;DHT22;27586;51.124;4.182;2022-12-07T15:57:34;7.90;99.90
41904;DHT22;27586;51.124;4.182;2022-12-07T16:00:00;7.90;99.90
41904;DHT22;27586;51.124;4.182;2022-12-07T16:02:26;7.90;99.90
41904;DHT22;27586;51.124;4.182;2022-12-07T16:04:52;7.80;99.90
41904;DHT22;27586;51.124;4.182;2022-12-07T16:07:18;7.80;99.90
41904;DHT22;27586;51.124;4.182;2022-12-07T16:09:45;7.90;99.90
41904;DHT22;27586;51.124;4.182;2022-12-07T16:12:12;7.80;99.90
41904;DHT22;27586;51.124;4.182;2022-12-07T16:14:39;7.80;99.90
41904;DHT22;27586;51.124;4.182;2022-12-07T16:17:09;7.80;99.90
41904;DHT22;27586;51.124;4.182;2022-12-07T16:19:39;7.90;99.90
41904;DHT22;27586;51.124;4.182;2022-12-07T16:22:05;7.90;99.90
41904;DHT22;27586;51.124;4.182;2022-12-07T16:24:31;7.90;99.90
41904;DHT22;27586;51.124;4.182;2022-12-07T16:26:56;7.90;99.90
41904;DHT22;27586;51.124;4.182;2022-12-07T16:29:23;7.90;99.90
41904;DHT22;27586;51.124;4.182;2022-12-07T16:31:49;7.90;99.90
41904;DHT22;27586;51.124;4.182;2022-12-07T16:34:16;7.80;99.90
41904;DHT22;27586;51.124;4.182;2022-12-07T16:36:41;7.80;99.90
41904;DHT22;27586;51.124;4.182;2022-12-07T16:39:08;7.80;99.90
41904;DHT22;27586;51.124;4.182;2022-12-07T16:41:33;7.70;99.90
41904;DHT22;27586;51.124;4.182;2022-12-07T16:44:05;7.70;99.90
41904;DHT22;27586;51.124;4.182;2022-12-07T16:46:32;7.70;99.90
41904;DHT22;27586;51.124;4.182;2022-12-07T16:48:58;7.70;99.90
41904;DHT22;27586;51.124;4.182;2022-12-07T16:51:24;7.60;99.90
41904;DHT22;27586;51.124;4.182;2022-12-07T16:53:52;7.70;99.90
41904;DHT22;27586;51.124;4.182;2022-12-07T16:56:18;7.60;99.90
41904;DHT22;27586;51.124;4.182;2022-12-07T16:58:44;7.40;99.90
41904;DHT22;27586;51.124;4.182;2022-12-07T17:01:14;7.50;99.90
41904;DHT22;27586;51.124;4.182;2022-12-07T17:03:40;7.60;99.90
41904;DHT22;27586;51.124;4.182;2022-12-07T17:06:23;7.70;99.90
41904;DHT22;27586;51.124;4.182;2022-12-07T17:08:50;7.90;99.90
41904;DHT22;27586;51.124;4.182;2022-12-07T17:11:22;7.80;99.90
41904;DHT22;27586;51.124;4.182;2022-12-07T17:13:48;7.90;99.90
41904;DHT22;27586;51.124;4.182;2022-12-07T17:16:32;7.70;99.90
41904;DHT22;27586;51.124;4.182;2022-12-07T17:18:58;7.70;99.90
41904;DHT22;27586;51.124;4.182;2022-12-07T17:21:24;7.50;99.90
41904;DHT22;27586;51.124;4.182;2022-12-07T17:23:50;7.50;99.90
41904;DHT22;27586;51.124;4.182;2022-12-07T17:26:19;7.60;99.90
41904;DHT22;27586;51.124;4.182;2022-12-07T17:28:46;7.50;99.90
41904;DHT22;27586;51.124;4.182;2022-12-07T17:31:15;7.30;99.90
41904;DHT22;27586;51.124;4.182;2022-12-07T17:33:41;7.20;99.90
41904;DHT22;27586;51.124;4.182;2022-12-07T17:38:36;7.10;99.90
41904;DHT22;27586;51.124;4.182;2022-12-07T17:41:12;7.20;99.90
41904;DHT22;27586;51.124;4.182;2022-12-07T17:43:58;7.30;99.90
41904;DHT22;27586;51.124;4.182;2022-12-07T17:46:24;7.30;99.90
41904;DHT22;27586;51.124;4.182;2022-12-07T17:48:50;7.30;99.90
41904;DHT22;27586;51.124;4.182;2022-12-07T17:51:15;7.30;99.90
41904;DHT22;27586;51.124;4.182;2022-12-07T17:54:00;7.40;99.90
41904;DHT22;27586;51.124;4.182;2022-12-07T17:56:25;7.40;99.90
41904;DHT22;27586;51.124;4.182;2022-12-07T17:58:51;7.40;99.90
41904;DHT22;27586;51.124;4.182;2022-12-07T18:01:16;7.40;99.90
41904;DHT22;27586;51.124;4.182;2022-12-07T18:03:42;7.40;99.90
41904;DHT22;27586;51.124;4.182;2022-12-07T18:06:08;7.50;99.90
41904;DHT22;27586;51.124;4.182;2022-12-07T18:08:36;7.50;99.90